Marathon de new york 2006

Marathon de New york- 5 novembre 2006

 

Le Marathon de New York a eu lieu le 5 novembre 2006.

En raison du nombre important de participants, les organisateurs de la course ( le New York Road Runners Club) ont prévu un quota pour chaque pays participant.

résultats du Marathon de New york- 5 novembre 2006

   Place	Name (Age) Team, State/Country	Finish
1	Marilson Gomes dos Santos (29) PDAN, BRA	02:09:58
2	Stephen Kiogora (31) NEWB, KEN	02:10:06
3	Paul Tergat (37) NIKE, KEN	02:10:10
4	Daniel Yego (35) NIKE, KEN	02:10:34
5	Rodgers Rop (30) ADID, KEN	02:11:24
6	Stefano Baldini (35) ASIC, ITA	02:11:33
7	William Kipsang (29) NIKE, KEN	02:11:54
8	Hailu Negussie (28) ADID, ETH	02:12:12
9	Hendrick Ramaala (34) NIKE, RSA	02:13:04
10	Peter Gilmore (29) MGUI, CA	02:13:13
11	Dathan Ritzenhein (23) NIKE, CO	02:14:01
12	Youssef Galmin (28) LETR, MAR	02:14:54
13	Thomas Nyariki (35) NEWB, KEN	02:15:58
14	Elias Kemboi (22) , KEN	02:16:33
15	Simon Wangai (27) NIKE, KEN	02:16:59
16	Francisco Bautista (34) , MEX	02:17:30
17	Joe Driscoll (27) ZAP, NC	02:18:40
18	Kassahun Kabiso (23) WTC, NY	02:19:04
19	Andrew Letherby (33) ASIC, CO	02:19:53
20	Matt Gabrielson (28) REEB, MN	02:19:53
21	Meb Keflezighi (31) NIKE, CA	02:22:02
22	Doriano Bussolotto (25) , ITA	02:23:12
23	Giovanni Auciello (26) , ITA	02:23:54
24	Jonas Buud (32) , SWE	02:23:55
25	Christopher Zieman (34) WVTC, CA	02:24:08
26	Manuel Anta de Miguel (40) , ESP	02:24:14
27	Carlos Carballo (24) , CA	02:24:23
28	Hermann Achmueller (35) SUDT, ITA	02:24:32
29	Patrick Gildea (26) NYAC, TN	02:24:54
30	Achour Saad (32) , FRA	02:24:56
31	Gilberto Pallotta (30) , ITA	02:24:59
32	Jelena Prokopcuka (30) NIKE, LAT	02:25:05
33	Dan McGrath (23) , IN	02:25:29
34	Thom Little (35) CPTC, NY	02:25:55
35	Tatiana Hladyr (31) NIKE, UKR	02:26:05
36	Vincenzo Trentadue (25) , ITA	02:26:07
37	Worku Beyi (19) WTC, NY	02:26:13
38	Peder Troldborg (43) ARHU, DEN	02:26:14
39	Benjamin Reynolds (42) RUNC, NJ	02:26:32
40	Catherine Ndereba (34) NIKE, KEN	02:26:58
41	Rita Jeptoo (25) ADID, KEN	02:26:59
42	Joe McVeigh (43) NYAC, NJ	02:27:07
43	Lidiya Grigoryeva (32) NIKE, RUS	02:27:21
44	Jerry Ross (31) , AK	02:27:23
45	Emanuele Ghiraldini (28) , ITA	02:27:43
46	Deena Kastor (33) ASIC, CA	02:27:54
47	Jacek Boral (35) PRC, NY	02:28:13
48	John Traugott (25) , NY	02:28:19
49	Kim Godtfredsen (40) , GRL	02:28:27
50	Filip Vanhaecke (47) , BEL	02:28:37
51	Marco Moretton (33) , ITA	02:28:49
52	Alemayehu Sitotaw (44) , NOR	02:29:07
53	Anders Szalkai (36) , SWE	02:29:19
54	Omri Holzman (27) GNY, NY	02:29:21
55	Stefano Massetti (33) , ITA	02:29:30
56	Brian Zondi (31) , RSA	02:29:38
57	Rahouf Ouassaa-Elbel (33) , FRA	02:30:01
58	Piergiorgio Conti (36) , ITA	02:30:18
59	Terrance Armstrong (35) FF, NJ	02:30:23
60	Julian Marsh (32) , CA	02:30:23
61	Lorenzo Checcacci (36) , ITA	02:30:27
62	Jose Carlos Ciprian Bergua (33) , ESP	02:31:05
63	Antonio Liuzzo (27) COVM, ITA	02:31:08
64	Didier Idziak (40) , FRA	02:31:11
65	Jonathan Clemens (32) , CA	02:31:15
66	Nina Rillstone (31) ADID, NZL	02:31:19
67	Antonio Zaccheo (26) , ITA	02:31:39
68	Luca Baroncini (29) , ITA	02:31:47
69	Bernd Weis (38) , GER	02:31:50
70	Adriano Pinamonti (40) , ITA	02:32:03
71	Devis Incerti (29) , ITA	02:32:05
72	Emiliano Marchetti (30) , ITA	02:32:28
73	Anssi Raittila (30) , FIN	02:32:30
74	Lornah Kiplagat (32) ADID, NED	02:32:31
75	Katie McGregor (29) REEB, MN	02:32:36
76	Salvatore Bettiol (44) , ITA	02:32:37
77	Stig Brahe Sorensen (37) , DEN	02:32:41
78	Susan Chepkemei (31) NIKE, KEN	02:32:45
79	Giovanni Iommi (32) , ITA	02:33:04
80	Emil Lerdahl (24) , SWE	02:33:04
81	Philippe Remond (43) , FRA	02:33:12
82	Silvia Skvortsova (31) NIKE, RUS	02:33:17
83	Matthew Cook (29) , CA	02:33:23
84	Andre Sicot (44) , FRA	02:34:05
85	Samia Akbar (24) REEB, VA	02:34:14
86	Clyde Rosanowski (26) , NZL	02:34:15
87	Giovambattista Audia (35) , ITA	02:34:26
88	Dominique Chauvelier (50) , FRA	02:34:36
89	Silvester Daudi (30) , KEN	02:34:36
90	Felipe Vergara (42) WSX, NY	02:34:39
91	Rob Semelroth (31) , IA	02:34:57
92	Claudia Camargo (35) WSX, CT	02:35:04
93	Art Gunther (35) , NY	02:35:18
94	Jonathan Peeters (28) , CO	02:35:26
95	Matteo Filippi (31) , ITA	02:35:26
96	Paul Kemp (37) , CAN	02:35:28
97	Jari Seppala (37) , FIN	02:35:43
98	Luke Wood (26) , ME	02:35:52
99	Adriano Pagotto (36) , ITA	02:35:52
100	Blake Benke (30) , NY	02:36:02
101	Alessandro Giannone (32) , ITA	02:36:39
102	Bernie Muller (23) BAA, MA	02:37:02
103	Eric Anish (38) SYRC, PA	02:37:13
104	Manuel Perez (34) , -	02:37:17
105	Kai Fischer (37) , GER	02:37:20
106	George Adams (36) , NH	02:37:36
107	Andrew Schupp (26) , MI	02:37:47
108	Antonio Martinez (42) WSX, NY	02:37:47
109	Antyhony Lashmar (31) , GBR	02:38:14
110	Julio Gomez Camacho (40) , ESP	02:38:15
111	Riccardo Chioccoloni (28) , ITA	02:38:21
112	Olof Thunegard (38) , SWE	02:38:21
113	Stefan Kolata (25) , NJ	02:38:23
114	Peter Camenzind (55) , SUI	02:38:24
115	Joseph Tumbarello (32) CPTC, NY	02:38:25
116	Jean Marc Leandro (37) , MON	02:38:34
117	Russell Pfeffer (25) CPTC, NY	02:38:41
118	Gualtiero Bassi (42) , ITA	02:38:49
119	Jorge Fernandez (43) WSX, NY	02:38:55
120	Julien Gantenbein (24) , SUI	02:38:59
121	Peter Duyan (28) , NY	02:39:06
122	Octavio Hernandez Gonzalez (29) , ESP	02:39:09
123	Jeffrey Rios (29) , CT	02:39:25
124	Robbie Johnston (39) , NZL	02:39:26
125	Gordon Sanders (45) , KY	02:39:26
126	Richard Velazquez (26) FRNY, NY	02:39:46
127	Duncan Marsden (32) , GBR	02:39:49
128	Pierre Senac (41) , FRA	02:39:59
129	Michele Meroni (35) , ITA	02:40:00
130	Adam Kuklinski (42) PRC, NY	02:40:00
131	Franck Chesnay (41) , FRA	02:40:10
132	Joseph Kibunja (31) , NY	02:40:13
133	Henry Wanyoike (32) , NY	02:40:14
134	Andreas Sterzinger (40) , GER	02:40:17
135	Anatolie Vartosu (38) , CT	02:40:30
136	Julio Sauce (34) WSX, NY	02:40:33
137	Carlos Sauce (29) WSX, NY	02:40:43
138	Ramon Tavares (38) WSX, NY	02:40:44
139	Jose Luis Gonzalez (34) , CHI	02:40:49
140	Alain Francis (44) , BEL	02:40:52
141	Patrick O'Rourke (38) , DE	02:40:52
142	Todd Neville (32) , FL	02:41:10
143	Jeremy Battles (28) , NY	02:41:13
144	Martin Rappe (34) , SWE	02:41:15
145	Hans Reichenbach (27) , SUI	02:41:15
146	Mike Poynter (29) , NY	02:41:17
147	Zoran Bursac (40) WSX, NY	02:41:18
148	Josef Aichner (45) , ITA	02:41:20
149	Steven Peterson (40) , VA	02:41:25
150	Nathaniel Halsey (35) , NY	02:41:33
151	Claude Simon (40) , LUX	02:41:35
152	Thomas Hynes (24) GNY, NY	02:41:43
153	Edwin Sena-Duran (34) WSX, NY	02:41:44
154	Matteo De Sensi (41) , ITA	02:41:49
155	Lewis Jones (28) , CT	02:41:50
156	Mark Woodman (43) , GBR	02:41:50
157	Gary Lough (36)	02:41:51
158	Angel Martinez Ramirez (29) , MEX	02:41:52
159	Massimo Menapace (36) , ITA	02:41:54
160	Jeffrey Watson (25) , CT	02:41:58
161	Rafael Veras (36) WSX, NY	02:42:02
162	Sonya O'Sullivan (36) , IRL	02:42:05
163	Olivier Mignotte (34) , FRA	02:42:06
164	Zach Crandall (26) , CO	02:42:08
165	Nicola Versari (33) , ITA	02:42:12
166	Todd Blanchard (37) , TX	02:42:13
167	Benjamin Saudo (24) WS, NY	02:42:19
168	Vito Minerva (36) , ITA	02:42:29
169	Jonathan Gilling (33) , GBR	02:42:31
170	Kurt Ploner (45) , ITA	02:42:32
171	John Clark (46) , AK	02:42:37
172	Fabio Ricci (36) , ITA	02:42:38
173	Magdalena Lewy Boulet (33) , CA	02:42:38
174	Israel Mncwango (40) , RSA	02:42:43
175	Thomas McCarney (30) CPTC, NY	02:42:49
176	Gavin Goldstein (25) NYH, NY	02:42:49
177	Peter Heimgartner (37) WSX, NY	02:42:50
178	Victoria Ganushina (26) WS, UKR	02:42:50
179	Richard Graemiger (37) , SUI	02:42:55
180	Ryan Cleary (29) NYH, NY	02:43:00
181	Joel Podgorski (31) , CO	02:43:07
182	Patrick Driscoll (26) , NY	02:43:18
183	Michael Daigeaun (26) , NJ	02:43:27
184	Brian Turner (33) , GBR	02:43:29
185	Robert Emord (25) , CT	02:43:30
186	Brad Yewer (27) , TN	02:43:33
187	Kosuke Kondo (30) WSX, NY	02:43:34
188	Brad Weiss (32) CPTC, NY	02:43:41
189	Martin Formstone (28) , GBR	02:43:44
190	Gregory Davis (36) , DE	02:43:45
191	Cristiano Iuliano (28) , ITA	02:43:47
192	Carmine Piccolo (45) , ITA	02:43:48
193	Sam Hill (28) , AK	02:43:49
194	Marco Capelli (34) , PA	02:43:58
195	Herman Hofstee (43) , NED	02:44:01
196	Matthew Cullen (25) WTC, NY	02:44:04
197	Michelle LaFleur (34) SAPB, GA	02:44:09
198	Gilles Guerin (38) , NY	02:44:14
199	Mark Malander (48) RESR, VA	02:44:19
200	Roger Cross (41) , OR	02:44:20
 

resultats complets